createdAt,value
2023-09-23T00:00:18.607Z,23.3
2023-09-23T00:01:20.802Z,23.4
2023-09-23T00:02:23.226Z,23.3
2023-09-23T00:03:25.653Z,23.4
2023-09-23T00:04:27.719Z,23.5
2023-09-23T00:05:29.771Z,23.4
2023-09-23T01:04:07.591Z,23.6
2023-09-23T03:10:43.991Z,23.2
2023-09-23T05:37:52.055Z,22.7
2023-09-23T05:38:53.721Z,22.8
2023-09-23T05:49:11.417Z,22.7
2023-09-23T06:14:55.732Z,22.7
2023-09-23T06:15:57.605Z,22.7
2023-09-23T06:16:59.814Z,22.6
2023-09-23T06:18:02.502Z,22.8
2023-09-23T06:19:04.993Z,22.7
2023-09-23T06:20:09.664Z,22.7
2023-09-23T06:21:12.213Z,22.6
2023-09-23T06:22:14.435Z,22.6
2023-09-23T06:23:16.623Z,22.7
2023-09-23T06:24:18.841Z,22.6
2023-09-23T06:25:20.682Z,22.8
2023-09-23T06:26:22.918Z,22.7
2023-09-23T08:13:24.960Z,22.6
2023-09-23T08:14:26.731Z,22.6
2023-09-23T08:17:32.748Z,22.7
2023-09-23T08:18:34.678Z,22.7
2023-09-23T08:58:45.662Z,22.7
2023-09-23T08:59:48.434Z,22.8
2023-09-23T09:00:50.624Z,22.8
2023-09-23T09:01:52.861Z,22.8
2023-09-23T09:02:55.465Z,22.6
2023-09-23T09:03:57.669Z,22.7
2023-09-23T09:04:59.897Z,22.7
2023-09-23T09:06:02.502Z,22.6
2023-09-23T09:07:04.686Z,22.7
2023-09-23T09:08:06.715Z,22.8
2023-09-23T09:09:08.907Z,22.7
2023-09-23T09:10:11.222Z,22.7
2023-09-23T09:11:13.471Z,22.8
2023-09-23T09:12:15.702Z,22.7
2023-09-23T09:13:17.356Z,22.7
2023-09-23T09:14:19.360Z,22.6
2023-09-23T09:15:21.058Z,22.7
2023-09-23T09:17:24.870Z,22.6
2023-09-23T09:39:05.881Z,22.6
2023-09-23T09:40:07.862Z,22.8
2023-09-23T09:41:09.771Z,22.7
2023-09-23T09:42:11.762Z,22.8
2023-09-23T09:43:13.769Z,22.8
2023-09-23T09:44:15.667Z,22.7
2023-09-23T09:45:17.718Z,22.9
2023-09-23T09:46:19.609Z,22.7
2023-09-23T09:47:21.693Z,22.8
2023-09-23T09:48:23.731Z,22.8
2023-09-23T09:49:25.710Z,22.8
2023-09-23T09:50:27.606Z,22.6
2023-09-23T09:51:29.473Z,22.8
2023-09-23T09:52:31.337Z,22.6
2023-09-23T09:53:32.838Z,22.7
2023-09-23T09:54:34.782Z,22.7
2023-09-23T09:55:36.697Z,22.7
2023-09-23T09:56:38.719Z,22.7
2023-09-23T09:57:40.738Z,22.6
2023-09-23T09:58:42.827Z,22.7
2023-09-23T09:59:44.785Z,22.7
2023-09-23T10:00:46.812Z,22.7
2023-09-23T10:01:48.699Z,22.6
2023-09-23T10:02:50.626Z,22.6
2023-09-23T10:03:52.843Z,22.8
2023-09-23T10:04:55.104Z,22.7
2023-09-23T10:05:56.850Z,22.7
2023-09-23T10:06:58.637Z,22.7
2023-09-23T10:08:00.605Z,22.7
2023-09-23T10:09:02.418Z,22.6
2023-09-23T10:10:04.368Z,22.6
2023-09-23T10:11:06.535Z,22.7
2023-09-23T10:12:08.314Z,22.6
2023-09-23T10:13:10.145Z,22.7
2023-09-23T10:14:12.363Z,22.7
2023-09-23T10:15:14.414Z,22.7
2023-09-23T10:16:16.395Z,22.6
2023-09-23T10:17:18.618Z,22.7
2023-09-23T10:18:20.803Z,22.7
2023-09-23T10:19:23.158Z,22.7
2023-09-23T11:02:35.779Z,22.6
2023-09-23T11:03:37.822Z,22.8
2023-09-23T11:08:47.593Z,22.6
2023-09-23T11:38:41.786Z,22.6
2023-09-23T11:39:43.876Z,22.5
2023-09-23T12:03:28.869Z,22.4
2023-09-23T12:05:33.037Z,22.5
2023-09-23T12:06:34.848Z,22.6
2023-09-23T12:09:40.246Z,22.5
2023-09-23T12:48:53.112Z,22.5
2023-09-23T12:49:55.092Z,22.5
2023-09-23T12:50:57.032Z,22.5
2023-09-23T12:51:58.970Z,22.5
2023-09-23T12:53:00.953Z,22.4
2023-09-23T12:54:02.717Z,22.5
2023-09-23T12:55:04.390Z,22.5
2023-09-23T12:56:06.509Z,22.5
2023-09-23T12:57:08.429Z,22.6
2023-09-23T12:58:10.441Z,22.5
2023-09-23T12:59:12.331Z,22.7
2023-09-23T13:00:14.147Z,22.6
2023-09-23T13:01:30.805Z,22.5
2023-09-23T13:02:33.376Z,22.5
2023-09-23T13:03:36.432Z,22.5
2023-09-23T13:04:38.538Z,22.5
2023-09-23T13:05:40.810Z,22.4
2023-09-23T13:08:46.836Z,22.5
2023-09-23T13:09:48.558Z,22.6
2023-09-23T14:10:33.383Z,22.5
2023-09-23T14:11:35.268Z,22.6
2023-09-23T14:53:47.262Z,22.7
2023-09-23T14:54:49.384Z,22.9
2023-09-23T14:55:51.569Z,23
2023-09-23T14:56:53.534Z,23
2023-09-23T14:57:55.628Z,22.9
2023-09-23T14:58:57.633Z,22.8
2023-09-23T14:59:59.556Z,22.8
2023-09-23T15:01:01.725Z,22.9
2023-09-23T15:02:04.457Z,22.9
2023-09-23T15:03:07.620Z,22.9
2023-09-23T15:04:10.754Z,22.8
2023-09-23T15:05:13.485Z,22.5
2023-09-23T15:06:15.773Z,22.4
2023-09-23T15:08:22.857Z,22.4
2023-09-23T15:50:39.634Z,22.3
2023-09-23T15:51:41.490Z,22.2
2023-09-23T15:52:43.277Z,22.2
2023-09-23T15:53:45.357Z,22.2
2023-09-23T15:54:47.361Z,22.3
2023-09-23T15:55:49.332Z,22.2
2023-09-23T15:56:51.550Z,22.4
2023-09-23T15:57:53.525Z,22.3
2023-09-23T15:58:55.509Z,22.3
2023-09-23T15:59:57.622Z,22.3
2023-09-23T16:00:59.595Z,22.4
2023-09-23T16:02:02.064Z,22.3
2023-09-23T16:03:04.525Z,22.2
2023-09-23T16:04:07.158Z,22.2
2023-09-23T16:05:09.294Z,22.2
2023-09-23T16:06:10.961Z,22.2
2023-09-23T16:07:12.704Z,22.2
2023-09-23T16:33:58.961Z,22.3
2023-09-23T17:03:49.785Z,21.9
2023-09-23T17:33:39.311Z,22.1
2023-09-23T18:04:35.759Z,21.8
2023-09-23T18:05:38.091Z,21.9
2023-09-23T18:33:25.912Z,21.5
2023-09-23T18:34:28.091Z,21.3
2023-09-23T18:48:56.174Z,21.2
2023-09-23T18:49:58.789Z,21.3
2023-09-23T18:51:00.790Z,21.2
2023-09-23T18:52:02.768Z,21.4
2023-09-23T18:53:04.749Z,21.4
2023-09-23T18:54:06.934Z,21.3
2023-09-23T18:55:09.042Z,21.3
2023-09-23T18:56:11.228Z,21.2
2023-09-23T18:57:13.278Z,21.2
2023-09-23T18:58:15.465Z,21.2
2023-09-23T18:59:17.657Z,21.3
2023-09-23T19:00:19.718Z,21.2
2023-09-23T19:01:22.238Z,21.2
2023-09-23T19:02:24.700Z,21.4
2023-09-23T19:03:27.597Z,21.6
2023-09-23T19:04:30.362Z,21.1
2023-09-23T19:05:32.662Z,21.3
2023-09-23T19:06:34.913Z,21.2
2023-09-23T19:07:37.615Z,21.2
2023-09-23T19:08:39.671Z,21.2
2023-09-23T19:09:41.886Z,21
2023-09-23T19:10:43.845Z,21.1
2023-09-23T19:11:46.056Z,20.9
2023-09-23T19:12:48.386Z,21
2023-09-23T19:13:50.529Z,21.1
2023-09-23T19:14:55.200Z,21.1
2023-09-23T19:15:59.067Z,20.9
2023-09-23T19:17:01.474Z,20.8
2023-09-23T19:18:04.010Z,20.9
2023-09-23T19:19:06.109Z,20.8
2023-09-23T19:44:53.499Z,20.5
2023-09-23T19:45:55.593Z,20.4
2023-09-23T19:46:57.655Z,20.9
2023-09-23T20:02:26.784Z,20.8
2023-09-23T21:03:11.671Z,21.9
2023-09-23T21:04:14.743Z,21.8
2023-09-23T21:05:17.972Z,21.9
2023-09-23T21:06:20.065Z,21.8
2023-09-23T21:07:21.997Z,21.8
2023-09-23T21:09:25.331Z,21.8
2023-09-23T22:33:50.126Z,22
2023-09-23T22:46:18.335Z,22.1
2023-09-23T22:47:20.460Z,22
2023-09-23T22:48:22.619Z,22.1
2023-09-23T22:49:24.554Z,22
2023-09-23T22:50:26.639Z,22.1
2023-09-23T22:51:28.668Z,22.1
2023-09-23T22:52:30.690Z,22.1
2023-09-23T22:53:32.616Z,22.1
2023-09-23T22:54:34.651Z,22.1
2023-09-23T22:55:36.646Z,22.1
2023-09-23T22:56:38.826Z,22
2023-09-23T22:57:40.712Z,22
2023-09-23T22:58:42.576Z,22.1
2023-09-23T22:59:44.625Z,22
2023-09-23T23:00:46.748Z,22
2023-09-23T23:01:48.633Z,22.1
2023-09-23T23:02:50.928Z,22
2023-09-23T23:03:53.159Z,22.1
2023-09-23T23:04:55.341Z,22.1
2023-09-23T23:05:57.911Z,22.1
2023-09-23T23:07:00.319Z,22.1
2023-09-23T23:08:02.606Z,22.2
2023-09-23T23:09:04.630Z,22.2
2023-09-23T23:10:06.624Z,22.2
2023-09-23T23:11:09.004Z,22.2
2023-09-23T23:12:10.866Z,22.3
2023-09-23T23:13:12.891Z,22.3
2023-09-23T23:14:14.741Z,22.3
2023-09-23T23:15:16.719Z,22.5
2023-09-23T23:16:18.809Z,22.4
2023-09-23T23:17:20.782Z,22.4
2023-09-23T23:18:22.593Z,22.4
2023-09-23T23:19:24.794Z,22.3
2023-09-23T23:20:26.949Z,22.4
2023-09-23T23:21:29.010Z,22.2
2023-09-23T23:22:30.988Z,22
2023-09-23T23:23:33.196Z,22
2023-09-23T23:24:35.637Z,21.9
2023-09-23T23:25:37.782Z,22.1
2023-09-23T23:26:39.919Z,22.1
